Time;durP1;ratioP1;P1;durP2;ratioP2;P2;SDS_P1;SDS_P2;PMS_P1;PMS_P2;Temp;Humidity;BMP_temperature;BMP_pressure;BME280_temperature;BME280_humidity;BME280_pressure;Samples;Min_cycle;Max_cycle;Signal;HPM_P1;HPM_P2
2023/08/09 00:00:16;;;;;;;2.33;1.08;;;17.80;89.70;;;;;;6183175;23;20009;-80
2023/08/09 00:02:42;;;;;;;1.65;0.90;;;17.90;89.60;;;;;;6183246;23;20012;-80
2023/08/09 00:05:07;;;;;;;1.10;0.90;;;17.80;89.60;;;;;;6182892;23;20056;-81
2023/08/09 00:07:33;;;;;;;1.50;0.88;;;17.90;89.60;;;;;;6183215;23;20005;-80
2023/08/09 00:09:59;;;;;;;1.33;0.95;;;17.90;89.50;;;;;;6184886;23;20096;-80
2023/08/09 00:12:24;;;;;;;2.05;1.00;;;17.90;89.90;;;;;;6184920;23;20016;-80
2023/08/09 00:14:50;;;;;;;1.45;0.85;;;18.00;89.40;;;;;;6185949;23;20012;-80
2023/08/09 00:17:16;;;;;;;1.38;1.00;;;17.90;89.30;;;;;;6188835;23;20116;-81
2023/08/09 00:19:41;;;;;;;1.30;0.90;;;17.90;89.30;;;;;;6191148;23;20015;-81
2023/08/09 00:22:08;;;;;;;1.40;0.90;;;17.90;89.30;;;;;;6188874;23;20020;-81
2023/08/09 00:24:33;;;;;;;1.70;0.95;;;17.90;89.30;;;;;;6186778;23;20009;-81
2023/08/09 00:26:59;;;;;;;1.30;0.80;;;17.90;89.30;;;;;;6188958;23;20012;-81
2023/08/09 00:29:25;;;;;;;2.47;1.08;;;17.90;89.40;;;;;;6185346;23;20056;-81
2023/08/09 00:31:50;;;;;;;1.73;1.02;;;17.90;89.30;;;;;;6187586;23;20001;-81
2023/08/09 00:34:16;;;;;;;1.60;0.82;;;17.90;89.30;;;;;;6186291;23;20009;-81
2023/08/09 00:36:41;;;;;;;1.67;1.00;;;17.90;89.30;;;;;;6186394;23;20495;-81
2023/08/09 00:39:08;;;;;;;1.20;0.80;;;17.80;89.40;;;;;;6189819;23;20001;-81
2023/08/09 00:41:33;;;;;;;1.40;0.90;;;17.90;89.50;;;;;;6191563;23;20015;-81
2023/08/09 00:43:59;;;;;;;1.30;1.00;;;17.80;89.60;;;;;;6191616;23;20280;-81
2023/08/09 00:46:25;;;;;;;2.17;0.95;;;17.80;89.70;;;;;;6190364;23;20088;-81
2023/08/09 00:48:50;;;;;;;1.92;1.10;;;17.80;89.60;;;;;;6189816;23;20044;-80
2023/08/09 00:51:18;;;;;;;1.98;1.10;;;17.80;89.60;;;;;;6190288;23;20012;-82
2023/08/09 00:53:43;;;;;;;1.80;0.90;;;17.80;89.70;;;;;;6190262;23;20009;-81
2023/08/09 00:56:09;;;;;;;2.20;1.10;;;17.80;89.70;;;;;;6191828;23;20479;-81
2023/08/09 00:58:35;;;;;;;1.95;1.10;;;17.80;89.70;;;;;;6189329;23;20001;-82
2023/08/09 01:01:00;;;;;;;1.50;0.80;;;17.80;89.80;;;;;;6189344;23;20001;-81
2023/08/09 01:03:26;;;;;;;0.98;0.85;;;17.80;89.80;;;;;;6188150;23;20001;-78
2023/08/09 01:05:55;;;;;;;2.20;1.08;;;17.80;89.80;;;;;;6188362;23;20076;-81
2023/08/09 01:08:33;;;;;;;1.88;1.10;;;17.80;89.80;;;;;;6189924;23;20390;-81
2023/08/09 01:11:12;;;;;;;1.40;0.82;;;17.70;89.80;;;;;;6190417;23;20040;-80
2023/08/09 01:13:39;;;;;;;1.48;0.98;;;17.80;89.80;;;;;;6213161;23;20344;-81
2023/08/09 01:16:07;;;;;;;1.42;0.80;;;17.70;89.90;;;;;;6188558;23;20009;-80
2023/08/09 01:18:35;;;;;;;1.40;0.90;;;17.70;89.70;;;;;;6214006;23;19998;-81
2023/08/09 01:21:01;;;;;;;1.63;1.10;;;17.80;89.80;;;;;;6188277;23;20005;-82
2023/08/09 01:23:38;;;;;;;1.50;1.00;;;17.80;89.80;;;;;;6189701;23;20024;-81
2023/08/09 01:26:04;;;;;;;1.85;1.10;;;17.80;89.80;;;;;;6187527;23;20012;-81
2023/08/09 01:28:30;;;;;;;1.58;1.00;;;17.70;89.90;;;;;;6211962;23;20036;-81
2023/08/09 01:30:57;;;;;;;1.50;1.05;;;17.70;89.70;;;;;;6211722;23;20020;-81
2023/08/09 01:33:23;;;;;;;2.10;1.13;;;17.70;89.70;;;;;;6188156;23;20009;-79
2023/08/09 01:36:16;;;;;;;1.48;0.93;;;17.70;90.00;;;;;;6189501;23;20055;-81
2023/08/09 01:38:48;;;;;;;2.55;1.00;;;17.80;90.00;;;;;;6211772;23;20005;-81
2023/08/09 01:41:15;;;;;;;2.20;1.00;;;17.80;89.90;;;;;;6186609;23;20005;-81
2023/08/09 01:43:42;;;;;;;1.65;0.98;;;17.80;89.90;;;;;;6186600;23;20008;-80
2023/08/09 01:46:08;;;;;;;1.88;1.10;;;17.80;89.80;;;;;;6186728;23;20092;-81
2023/08/09 01:48:35;;;;;;;1.65;0.95;;;17.90;89.80;;;;;;6186597;23;20017;-81
2023/08/09 01:51:01;;;;;;;1.73;1.10;;;17.90;89.70;;;;;;6186772;23;20005;-81
2023/08/09 01:53:28;;;;;;;2.13;1.00;;;17.90;89.70;;;;;;6186359;23;20013;-80
2023/08/09 01:55:53;;;;;;;1.70;1.00;;;17.90;89.60;;;;;;6188102;23;20344;-80
2023/08/09 01:58:19;;;;;;;1.65;0.95;;;17.90;89.60;;;;;;6187722;23;20008;-81
2023/08/09 02:00:45;;;;;;;1.60;0.95;;;17.90;89.60;;;;;;6185656;23;20008;-81
2023/08/09 02:03:11;;;;;;;1.85;1.10;;;17.90;89.50;;;;;;6185095;23;20001;-81
2023/08/09 02:05:38;;;;;;;1.50;0.90;;;17.90;89.60;;;;;;6185175;23;20001;-80
2023/08/09 02:08:04;;;;;;;1.95;1.20;;;17.90;89.50;;;;;;6185162;23;20012;-81
2023/08/09 02:10:30;;;;;;;2.00;0.95;;;17.80;89.60;;;;;;6185059;23;20009;-81
2023/08/09 02:12:55;;;;;;;2.05;1.00;;;17.70;89.60;;;;;;6187157;23;20344;-81
2023/08/09 02:15:21;;;;;;;1.98;1.00;;;17.80;89.60;;;;;;6186695;23;19997;-80
2023/08/09 02:17:49;;;;;;;1.40;1.10;;;17.80;89.70;;;;;;6187361;23;20024;-81
2023/08/09 02:20:15;;;;;;;2.80;1.10;;;17.80;89.80;;;;;;6187217;23;19997;-81
2023/08/09 02:22:42;;;;;;;1.45;1.02;;;17.90;89.90;;;;;;6187974;23;20420;-81
2023/08/09 02:25:13;;;;;;;1.77;1.05;;;17.80;89.90;;;;;;6184405;23;20005;-81
2023/08/09 02:27:39;;;;;;;2.30;0.90;;;17.80;89.80;;;;;;6210108;23;20016;-81
2023/08/09 02:30:06;;;;;;;2.53;1.10;;;17.70;89.90;;;;;;6184954;23;20009;-81
2023/08/09 02:32:32;;;;;;;1.75;1.30;;;17.70;89.90;;;;;;6184772;23;20001;-81
2023/08/09 02:34:58;;;;;;;1.52;0.90;;;17.70;89.90;;;;;;6184646;23;20055;-81
2023/08/09 02:37:24;;;;;;;1.90;1.10;;;17.70;90.00;;;;;;6184243;23;20005;-81
2023/08/09 02:39:50;;;;;;;1.23;0.98;;;17.70;90.00;;;;;;6186223;23;20457;-81
2023/08/09 02:42:16;;;;;;;1.65;1.10;;;17.80;90.00;;;;;;6185471;23;20068;-81
2023/08/09 02:44:42;;;;;;;2.20;1.10;;;17.70;90.00;;;;;;6185543;23;20001;-82
2023/08/09 02:47:08;;;;;;;1.38;1.02;;;17.80;90.00;;;;;;6187200;23;20009;-83
2023/08/09 02:49:34;;;;;;;2.15;1.20;;;17.80;90.00;;;;;;6184482;23;20313;-81
2023/08/09 02:51:59;;;;;;;1.40;0.90;;;17.80;90.00;;;;;;6184137;23;20009;-81
2023/08/09 02:54:25;;;;;;;1.92;1.08;;;17.70;90.00;;;;;;6183581;23;20384;-81
2023/08/09 02:56:50;;;;;;;2.17;1.20;;;17.80;90.00;;;;;;6185314;23;20008;-81
2023/08/09 02:59:16;;;;;;;1.10;0.93;;;17.70;90.00;;;;;;6185473;23;20068;-81
2023/08/09 03:01:44;;;;;;;2.53;1.20;;;17.70;90.00;;;;;;6184658;23;20039;-81
2023/08/09 03:04:09;;;;;;;1.90;1.00;;;17.70;90.00;;;;;;6208409;23;20020;-81
2023/08/09 03:06:35;;;;;;;1.88;1.15;;;17.70;90.20;;;;;;6185265;23;20024;-81
2023/08/09 03:09:02;;;;;;;2.25;1.00;;;17.70;90.00;;;;;;6183438;23;20076;-81
2023/08/09 03:11:27;;;;;;;1.23;1.00;;;17.70;90.00;;;;;;6183561;23;20009;-81
2023/08/09 03:13:53;;;;;;;1.70;1.17;;;17.70;90.00;;;;;;6185702;23;20036;-81
2023/08/09 03:16:19;;;;;;;2.13;1.17;;;17.70;90.00;;;;;;6183697;23;20391;-81
2023/08/09 03:18:45;;;;;;;1.80;1.10;;;17.70;90.00;;;;;;6185681;23;20013;-81
2023/08/09 03:21:12;;;;;;;2.65;1.23;;;17.70;90.00;;;;;;6183782;23;20001;-81
2023/08/09 03:23:37;;;;;;;1.25;1.02;;;17.80;90.00;;;;;;6183767;23;20008;-81
2023/08/09 03:26:03;;;;;;;2.20;1.17;;;17.80;90.00;;;;;;6183447;23;20008;-81
2023/08/09 03:28:29;;;;;;;1.45;1.08;;;17.80;90.00;;;;;;6208472;23;20001;-81
2023/08/09 03:30:55;;;;;;;1.75;1.00;;;17.80;89.90;;;;;;6185187;23;20036;-81
2023/08/09 03:33:20;;;;;;;2.03;1.10;;;17.80;89.90;;;;;;6183177;23;20005;-81
2023/08/09 03:35:46;;;;;;;1.80;1.10;;;17.80;89.80;;;;;;6183000;23;20009;-81
2023/08/09 03:38:13;;;;;;;1.95;1.17;;;17.80;89.90;;;;;;6183321;23;20009;-81
2023/08/09 03:40:39;;;;;;;2.38;1.10;;;17.90;89.80;;;;;;6183227;23;20380;-81
2023/08/09 03:43:04;;;;;;;1.98;1.20;;;17.80;89.80;;;;;;6183222;23;20008;-81
2023/08/09 03:45:30;;;;;;;2.00;1.20;;;17.90;89.80;;;;;;6183218;23;20403;-81
2023/08/09 03:47:56;;;;;;;1.63;1.02;;;17.80;89.80;;;;;;6183211;23;20019;-83
2023/08/09 03:50:21;;;;;;;3.08;1.38;;;17.80;89.80;;;;;;6184581;23;20005;-81
2023/08/09 03:52:47;;;;;;;2.38;1.30;;;17.80;89.70;;;;;;6183207;23;20036;-80
2023/08/09 03:55:12;;;;;;;1.95;1.17;;;17.80;89.80;;;;;;6185950;23;20051;-81
2023/08/09 03:57:38;;;;;;;2.05;1.20;;;17.70;89.80;;;;;;6188187;23;20079;-81
2023/08/09 04:00:04;;;;;;;1.75;1.20;;;17.70;89.90;;;;;;6187643;23;20029;-80
2023/08/09 04:02:30;;;;;;;2.30;1.20;;;17.70;89.90;;;;;;6185349;23;20374;-80
2023/08/09 04:04:55;;;;;;;2.03;1.15;;;17.70;90.00;;;;;;6187253;23;20025;-81
2023/08/09 04:07:21;;;;;;;2.15;1.23;;;17.70;90.00;;;;;;6182391;23;20055;-81
2023/08/09 04:09:46;;;;;;;2.10;1.25;;;17.70;90.00;;;;;;6174301;23;20009;-81
2023/08/09 04:12:12;;;;;;;2.47;1.30;;;17.70;90.00;;;;;;6180836;23;20035;-81
2023/08/09 04:14:37;;;;;;;2.17;1.20;;;17.70;90.00;;;;;;6182515;23;20040;-82
2023/08/09 04:17:04;;;;;;;2.75;1.20;;;17.70;90.00;;;;;;6184857;23;20015;-84
2023/08/09 04:19:30;;;;;;;2.00;1.20;;;17.70;90.10;;;;;;6185383;23;20505;-84
2023/08/09 04:21:55;;;;;;;1.52;1.08;;;17.70;90.00;;;;;;6190122;23;20005;-83
2023/08/09 04:24:21;;;;;;;3.08;1.40;;;17.70;90.10;;;;;;6198212;23;20005;-82
2023/08/09 04:26:47;;;;;;;1.83;1.15;;;17.70;90.10;;;;;;6196147;23;20028;-84
2023/08/09 04:29:12;;;;;;;2.13;1.15;;;17.70;90.10;;;;;;6197585;23;20448;-82
2023/08/09 04:31:38;;;;;;;2.55;1.35;;;17.70;90.10;;;;;;6192326;23;20005;-82
2023/08/09 04:34:04;;;;;;;2.17;1.20;;;17.70;90.10;;;;;;6183891;23;20001;-82
2023/08/09 04:36:31;;;;;;;1.50;1.00;;;17.70;90.10;;;;;;6181907;23;20462;-82
2023/08/09 04:38:57;;;;;;;3.38;1.42;;;17.70;90.10;;;;;;6181313;23;20399;-82
2023/08/09 04:41:22;;;;;;;2.00;1.27;;;17.80;90.10;;;;;;6205954;23;20005;-81
2023/08/09 04:43:48;;;;;;;1.77;1.20;;;17.70;90.00;;;;;;6181053;23;20029;-82
2023/08/09 04:46:14;;;;;;;2.33;1.10;;;17.70;90.00;;;;;;6181749;23;20079;-86
2023/08/09 04:48:41;;;;;;;1.83;1.10;;;17.70;90.00;;;;;;6181078;23;20025;-82
2023/08/09 04:51:08;;;;;;;1.70;1.10;;;17.70;90.00;;;;;;6180508;23;20009;-84
2023/08/09 04:53:34;;;;;;;3.22;1.33;;;17.70;90.00;;;;;;6181744;23;20391;-84
2023/08/09 04:56:00;;;;;;;1.90;1.25;;;17.70;90.00;;;;;;6182351;23;20012;-82
2023/08/09 04:58:25;;;;;;;1.73;1.20;;;17.70;90.10;;;;;;6184239;23;19997;-81
2023/08/09 05:00:51;;;;;;;2.30;1.13;;;17.70;90.00;;;;;;6183372;23;20028;-81
2023/08/09 05:03:16;;;;;;;1.77;1.23;;;17.80;90.00;;;;;;6181705;23;20008;-82
2023/08/09 05:05:42;;;;;;;2.38;1.20;;;17.80;90.00;;;;;;6181275;23;20016;-82
2023/08/09 05:08:07;;;;;;;2.05;1.20;;;17.80;90.00;;;;;;6181363;23;20005;-81
2023/08/09 05:10:35;;;;;;;1.50;1.00;;;17.80;89.80;;;;;;6184242;23;20059;-82
2023/08/09 05:13:01;;;;;;;1.95;1.20;;;17.80;89.80;;;;;;6185400;23;20092;-84
2023/08/09 05:15:26;;;;;;;2.03;1.23;;;17.80;89.70;;;;;;6183644;23;20752;-82
2023/08/09 05:17:52;;;;;;;2.63;1.35;;;17.80;89.70;;;;;;6180703;23;20051;-82
2023/08/09 05:20:17;;;;;;;3.22;1.42;;;17.80;89.60;;;;;;6183310;23;20009;-82
2023/08/09 05:22:43;;;;;;;2.45;1.40;;;17.80;89.50;;;;;;6181339;23;20001;-81
2023/08/09 05:25:08;;;;;;;2.20;1.20;;;17.80;89.80;;;;;;6179875;23;20482;-82
2023/08/09 05:27:34;;;;;;;2.63;1.48;;;17.80;89.70;;;;;;6179683;23;20348;-83
2023/08/09 05:30:00;;;;;;;2.47;1.40;;;17.80;89.60;;;;;;6180163;23;20064;-82
2023/08/09 05:32:25;;;;;;;2.92;1.40;;;17.80;89.40;;;;;;6180262;23;20019;-80
2023/08/09 05:34:51;;;;;;;2.88;1.50;;;17.90;89.70;;;;;;6178748;23;20072;-81
2023/08/09 05:37:16;;;;;;;3.35;1.50;;;17.80;89.70;;;;;;6179634;23;20357;-85
2023/08/09 05:39:42;;;;;;;2.97;1.30;;;17.80;89.60;;;;;;6188485;23;20012;-81
2023/08/09 05:42:07;;;;;;;3.50;1.60;;;17.80;89.70;;;;;;6186088;23;20011;-81
2023/08/09 05:44:34;;;;;;;2.75;1.42;;;17.80;89.70;;;;;;6186066;23;20088;-81
2023/08/09 05:47:00;;;;;;;2.33;1.40;;;17.80;89.70;;;;;;6185985;23;20459;-81
2023/08/09 05:49:26;;;;;;;2.92;1.40;;;17.80;89.70;;;;;;6188863;23;20008;-81
2023/08/09 05:51:53;;;;;;;2.65;1.42;;;17.80;89.80;;;;;;6187657;23;20360;-81
2023/08/09 05:54:18;;;;;;;2.55;1.60;;;17.80;89.90;;;;;;6187256;23;20001;-81
2023/08/09 05:56:44;;;;;;;2.78;1.48;;;17.80;89.70;;;;;;6184909;23;20084;-81
2023/08/09 05:59:10;;;;;;;2.80;1.50;;;17.80;89.80;;;;;;6185835;23;20431;-83
2023/08/09 06:01:35;;;;;;;1.88;1.35;;;17.80;89.70;;;;;;6187197;23;19997;-81
2023/08/09 06:04:01;;;;;;;3.15;1.30;;;17.80;89.70;;;;;;6187580;23;20005;-81
2023/08/09 06:06:27;;;;;;;2.40;1.40;;;17.80;89.60;;;;;;6185346;23;20015;-82
2023/08/09 06:08:52;;;;;;;2.72;1.58;;;17.80;89.60;;;;;;6185026;23;20012;-81
2023/08/09 06:11:19;;;;;;;2.80;1.60;;;17.80;89.60;;;;;;6184666;23;20072;-84
2023/08/09 06:13:45;;;;;;;2.70;1.33;;;17.90;90.00;;;;;;6184727;23;20016;-83
2023/08/09 06:16:10;;;;;;;3.10;1.30;;;17.90;89.60;;;;;;6187035;23;20020;-84
2023/08/09 06:18:36;;;;;;;2.30;1.50;;;17.90;89.50;;;;;;6184563;23;20076;-81
2023/08/09 06:21:01;;;;;;;2.33;1.20;;;17.90;89.50;;;;;;6184720;23;20027;-81
2023/08/09 06:23:27;;;;;;;2.60;1.55;;;17.90;89.40;;;;;;6185703;23;20465;-82
2023/08/09 06:25:53;;;;;;;2.80;1.55;;;18.00;89.40;;;;;;6184106;23;20032;-81
2023/08/09 06:28:19;;;;;;;2.72;1.20;;;17.90;89.30;;;;;;6184214;23;20015;-81
2023/08/09 06:30:45;;;;;;;2.33;1.38;;;17.90;89.30;;;;;;6184022;23;20438;-81
2023/08/09 06:33:11;;;;;;;2.33;1.30;;;17.90;89.20;;;;;;6184849;23;20005;-81
2023/08/09 06:35:37;;;;;;;2.40;1.40;;;17.90;89.30;;;;;;6184477;23;20020;-81
2023/08/09 06:38:03;;;;;;;1.90;1.25;;;18.00;89.20;;;;;;6184316;23;20009;-81
2023/08/09 06:40:28;;;;;;;3.05;1.33;;;18.00;89.10;;;;;;6184420;23;20012;-82
2023/08/09 06:42:54;;;;;;;4.00;1.50;;;18.00;88.90;;;;;;6184730;23;19997;-81
2023/08/09 06:45:19;;;;;;;2.30;1.30;;;18.00;88.70;;;;;;6183462;23;20005;-81
2023/08/09 06:47:45;;;;;;;2.47;1.35;;;18.10;88.60;;;;;;6183971;23;20021;-80
2023/08/09 06:50:10;;;;;;;2.13;1.38;;;18.10;88.50;;;;;;6183790;23;20087;-83
2023/08/09 06:52:37;;;;;;;3.42;1.52;;;18.10;88.30;;;;;;6183817;23;20009;-81
2023/08/09 06:55:03;;;;;;;2.70;1.30;;;18.20;88.30;;;;;;6185079;23;20005;-81
2023/08/09 06:57:29;;;;;;;1.77;1.20;;;18.20;88.20;;;;;;6185583;23;20118;-81
2023/08/09 06:59:54;;;;;;;2.05;1.20;;;18.20;88.10;;;;;;6183506;23;20005;-81
2023/08/09 07:02:20;;;;;;;2.03;1.25;;;18.30;88.00;;;;;;6185348;23;20001;-81
2023/08/09 07:04:46;;;;;;;2.00;1.30;;;18.30;87.90;;;;;;6183456;23;20035;-81
2023/08/09 07:07:12;;;;;;;2.80;1.60;;;18.20;87.90;;;;;;6183439;23;20455;-82
2023/08/09 07:09:37;;;;;;;2.83;1.30;;;18.30;87.80;;;;;;6183346;23;20012;-81
2023/08/09 07:12:03;;;;;;;2.90;1.40;;;18.30;87.80;;;;;;6183539;23;20005;-81
2023/08/09 07:14:29;;;;;;;1.95;1.13;;;18.30;87.80;;;;;;6184649;23;20011;-81
2023/08/09 07:16:54;;;;;;;1.95;1.20;;;18.30;87.80;;;;;;6183284;23;20012;-83
2023/08/09 07:19:20;;;;;;;2.33;1.27;;;18.30;87.90;;;;;;6183238;23;20052;-81
2023/08/09 07:21:47;;;;;;;2.47;1.40;;;18.30;87.90;;;;;;6182098;23;20004;-82
2023/08/09 07:24:12;;;;;;;2.20;1.30;;;18.30;87.90;;;;;;6182089;23;20005;-81
2023/08/09 07:26:38;;;;;;;2.05;1.30;;;18.30;87.90;;;;;;6182546;23;20351;-81
2023/08/09 07:29:04;;;;;;;2.33;1.50;;;18.30;87.80;;;;;;6182367;23;20375;-81
2023/08/09 07:31:29;;;;;;;3.00;1.25;;;18.30;87.80;;;;;;6184659;23;20005;-83
2023/08/09 07:33:55;;;;;;;2.42;1.42;;;18.30;87.70;;;;;;6184491;23;20088;-81
2023/08/09 07:36:20;;;;;;;1.90;1.30;;;18.30;87.60;;;;;;6185186;23;20012;-81
2023/08/09 07:38:46;;;;;;;2.30;1.23;;;18.30;87.70;;;;;;6190105;23;20367;-82
2023/08/09 07:41:11;;;;;;;1.70;1.20;;;18.30;87.60;;;;;;6189421;23;20024;-81
2023/08/09 07:43:37;;;;;;;2.30;1.25;;;18.40;87.50;;;;;;6189858;23;20080;-82
2023/08/09 07:46:05;;;;;;;2.53;1.40;;;18.40;87.50;;;;;;6188249;23;20092;-81
2023/08/09 07:48:32;;;;;;;2.05;1.30;;;18.40;87.50;;;;;;6186825;23;20019;-81
2023/08/09 07:50:57;;;;;;;2.20;1.27;;;18.40;87.40;;;;;;6187412;23;20009;-82
2023/08/09 07:53:23;;;;;;;2.85;1.40;;;18.50;87.40;;;;;;6188914;23;20507;-81
2023/08/09 07:55:48;;;;;;;2.50;1.50;;;18.50;87.40;;;;;;6186952;23;20459;-81
2023/08/09 07:58:14;;;;;;;1.92;1.20;;;18.40;87.20;;;;;;6189323;23;20029;-81
2023/08/09 08:00:40;;;;;;;2.30;1.42;;;18.50;87.10;;;;;;6188015;23;20001;-81
2023/08/09 08:03:06;;;;;;;2.20;1.13;;;18.50;87.10;;;;;;6189714;23;19998;-82
2023/08/09 08:05:31;;;;;;;1.67;1.10;;;18.50;86.90;;;;;;6188850;23;20011;-83
2023/08/09 08:07:57;;;;;;;2.47;1.35;;;18.50;86.90;;;;;;6190230;23;20624;-82
2023/08/09 08:10:23;;;;;;;2.28;1.40;;;18.50;86.80;;;;;;6188436;23;20009;-82
2023/08/09 08:12:49;;;;;;;1.90;1.20;;;18.60;86.90;;;;;;6193168;23;20060;-83
2023/08/09 08:15:16;;;;;;;2.35;1.35;;;18.60;86.90;;;;;;6193743;23;20096;-83
2023/08/09 08:17:42;;;;;;;2.20;1.20;;;18.60;86.90;;;;;;6217447;23;20444;-81
2023/08/09 08:20:15;;;;;;;1.98;1.00;;;18.60;86.80;;;;;;6191407;23;20066;-81
2023/08/09 08:22:41;;;;;;;1.48;1.00;;;18.70;86.70;;;;;;6190751;23;20080;-81
2023/08/09 08:25:07;;;;;;;1.92;1.30;;;18.70;86.50;;;;;;6193123;23;20005;-83
2023/08/09 08:27:36;;;;;;;1.58;1.05;;;18.70;86.40;;;;;;6192828;23;20016;-83
2023/08/09 08:30:04;;;;;;;2.83;1.40;;;18.80;86.30;;;;;;6191642;23;20005;-83
2023/08/09 08:32:30;;;;;;;3.22;1.35;;;18.80;86.20;;;;;;6192157;23;20009;-82
2023/08/09 08:34:56;;;;;;;1.63;1.10;;;18.80;86.10;;;;;;6215901;23;20497;-81
2023/08/09 08:37:23;;;;;;;1.83;1.15;;;18.80;86.00;;;;;;6191777;23;20033;-82
2023/08/09 08:39:48;;;;;;;1.17;1.05;;;18.80;85.90;;;;;;6184423;23;20004;-81
2023/08/09 08:42:14;;;;;;;1.60;1.15;;;18.90;85.90;;;;;;6189336;23;20055;-82
2023/08/09 08:44:40;;;;;;;3.00;1.30;;;18.90;85.80;;;;;;6190919;23;20027;-81
2023/08/09 08:47:06;;;;;;;1.83;1.15;;;18.90;85.80;;;;;;6188970;23;20555;-81
2023/08/09 08:49:34;;;;;;;1.77;1.20;;;18.90;85.90;;;;;;6213153;23;20337;-81
2023/08/09 08:52:03;;;;;;;1.90;1.10;;;18.90;86.00;;;;;;6187991;23;20003;-82
2023/08/09 08:54:29;;;;;;;2.72;1.40;;;18.90;86.10;;;;;;6189050;23;20384;-81
2023/08/09 08:56:55;;;;;;;1.85;1.13;;;18.90;86.20;;;;;;6186605;23;20052;-81
2023/08/09 08:59:21;;;;;;;1.50;1.10;;;18.90;86.30;;;;;;6186431;23;20088;-82
2023/08/09 09:01:47;;;;;;;2.03;1.10;;;18.90;86.20;;;;;;6188766;23;19997;-81
2023/08/09 09:04:13;;;;;;;1.50;1.10;;;18.90;86.80;;;;;;6185465;23;20063;-81
2023/08/09 09:06:40;;;;;;;1.83;1.20;;;18.90;86.20;;;;;;6184460;23;20005;-83
2023/08/09 09:09:16;;;;;;;1.60;1.23;;;18.90;86.00;;;;;;6186022;23;20036;-83
2023/08/09 09:11:45;;;;;;;2.17;1.30;;;18.90;86.00;;;;;;6184599;23;20456;-82
2023/08/09 09:14:14;;;;;;;1.38;1.05;;;18.90;85.90;;;;;;6184055;23;20008;-81
2023/08/09 09:16:41;;;;;;;1.30;1.10;;;18.90;86.10;;;;;;6184355;23;20033;-81
2023/08/09 09:19:08;;;;;;;2.22;1.27;;;18.90;86.00;;;;;;6184543;23;20005;-81
2023/08/09 09:21:34;;;;;;;1.23;1.00;;;19.00;86.20;;;;;;6185802;23;19997;-81
2023/08/09 09:24:08;;;;;;;2.40;1.25;;;19.00;86.20;;;;;;6183908;23;20071;-81
2023/08/09 09:26:37;;;;;;;1.70;1.10;;;19.00;85.90;;;;;;6185756;23;20005;-81
2023/08/09 09:29:07;;;;;;;1.40;1.05;;;19.00;86.00;;;;;;6184714;23;20031;-81
2023/08/09 09:31:39;;;;;;;1.63;1.10;;;19.00;86.10;;;;;;6184327;23;20439;-81
2023/08/09 09:34:06;;;;;;;1.52;1.02;;;19.00;86.10;;;;;;6183919;23;20012;-81
2023/08/09 09:36:33;;;;;;;1.40;1.00;;;19.00;86.10;;;;;;6184134;23;20347;-81
2023/08/09 09:38:59;;;;;;;1.48;1.00;;;19.00;86.10;;;;;;6184309;23;20502;-81
2023/08/09 09:41:25;;;;;;;1.33;1.10;;;19.00;86.10;;;;;;6184228;23;19997;-81
2023/08/09 09:43:51;;;;;;;1.13;0.90;;;19.00;86.10;;;;;;6185471;23;20001;-81
2023/08/09 09:46:18;;;;;;;1.38;0.90;;;19.00;86.10;;;;;;6185516;23;20005;-81
2023/08/09 09:48:59;;;;;;;1.52;1.10;;;19.00;86.20;;;;;;6184115;23;20431;-81
2023/08/09 09:51:25;;;;;;;1.80;1.10;;;19.00;86.20;;;;;;6185824;23;20373;-81
2023/08/09 09:53:51;;;;;;;2.15;1.10;;;19.00;86.20;;;;;;6183846;23;20036;-81
2023/08/09 09:56:17;;;;;;;1.52;0.90;;;19.10;86.20;;;;;;6185499;23;20052;-82
2023/08/09 09:58:43;;;;;;;1.83;1.13;;;19.00;86.10;;;;;;6185719;23;20103;-81
2023/08/09 10:01:12;;;;;;;1.10;0.80;;;19.10;86.10;;;;;;6184169;23;20452;-81
2023/08/09 10:03:41;;;;;;;1.58;1.00;;;19.10;86.00;;;;;;6185019;23;20008;-81
2023/08/09 10:06:10;;;;;;;1.67;0.93;;;19.10;85.90;;;;;;6185462;23;20028;-81
2023/08/09 10:08:38;;;;;;;1.75;1.00;;;19.10;85.80;;;;;;6184158;23;20013;-82
2023/08/09 10:11:04;;;;;;;1.58;1.10;;;19.10;85.60;;;;;;6183960;23;20009;-81
2023/08/09 10:13:31;;;;;;;2.38;1.10;;;19.20;85.50;;;;;;6183003;23;20199;-84
2023/08/09 10:16:02;;;;;;;1.50;0.90;;;19.20;85.40;;;;;;6183735;23;20092;-81
2023/08/09 10:18:33;;;;;;;1.60;1.00;;;19.20;85.30;;;;;;6183880;23;20344;-81
2023/08/09 10:21:01;;;;;;;1.63;1.10;;;19.20;85.30;;;;;;6183863;23;20025;-81
2023/08/09 10:23:31;;;;;;;2.10;1.00;;;19.20;85.30;;;;;;6183710;23;20012;-80
2023/08/09 10:25:58;;;;;;;1.42;0.95;;;19.20;85.30;;;;;;6183962;23;20009;-81
2023/08/09 10:28:39;;;;;;;1.40;1.00;;;19.10;85.30;;;;;;6183965;23;20507;-81
2023/08/09 10:31:04;;;;;;;;;;;19.20;85.60;;;;;;6184374;23;20032;-82
2023/08/09 10:33:31;;;;;;;0.90;0.80;;;19.10;85.70;;;;;;6183512;23;20192;-80
2023/08/09 10:35:57;;;;;;;2.58;1.10;;;19.10;85.80;;;;;;6183378;23;20032;-83
2023/08/09 10:38:31;;;;;;;1.02;0.88;;;19.10;85.70;;;;;;6183386;23;20001;-81
2023/08/09 10:40:58;;;;;;;1.95;1.02;;;19.10;85.80;;;;;;6185192;23;20063;-83
2023/08/09 10:43:26;;;;;;;1.05;0.80;;;19.10;85.90;;;;;;6183511;23;19997;-81
2023/08/09 10:45:55;;;;;;;1.50;1.00;;;19.00;85.90;;;;;;6185074;23;20005;-81
2023/08/09 10:48:24;;;;;;;1.55;0.90;;;19.00;86.00;;;;;;6183305;23;20345;-81
2023/08/09 10:51:01;;;;;;;1.40;0.90;;;19.00;86.00;;;;;;6183533;23;20091;-81
2023/08/09 10:53:27;;;;;;;1.45;0.90;;;19.00;86.20;;;;;;6183182;23;20036;-81
2023/08/09 10:55:56;;;;;;;2.15;1.00;;;19.00;86.30;;;;;;6183493;23;20035;-81
2023/08/09 10:58:28;;;;;;;1.27;1.00;;;18.90;86.60;;;;;;6208351;23;20091;-82
2023/08/09 11:00:54;;;;;;;1.58;0.90;;;18.90;86.80;;;;;;6185036;23;20001;-81
2023/08/09 11:03:20;;;;;;;1.85;1.00;;;18.90;86.60;;;;;;6184671;23;20029;-81
2023/08/09 11:05:45;;;;;;;1.95;1.00;;;18.90;86.70;;;;;;6185429;23;20519;-81
2023/08/09 11:08:16;;;;;;;1.20;0.90;;;18.90;86.80;;;;;;6183294;23;20084;-83
2023/08/09 11:10:42;;;;;;;1.80;0.90;;;18.90;86.80;;;;;;6208324;23;20500;-81
2023/08/09 11:13:09;;;;;;;1.52;1.00;;;18.90;86.80;;;;;;6183371;23;20091;-81
2023/08/09 11:15:36;;;;;;;1.55;0.95;;;18.90;86.90;;;;;;6182883;23;20005;-81
2023/08/09 11:18:02;;;;;;;1.77;1.10;;;18.90;86.80;;;;;;6183294;23;20008;-81
2023/08/09 11:20:28;;;;;;;1.48;1.00;;;18.90;86.90;;;;;;6184804;23;20001;-83
2023/08/09 11:22:54;;;;;;;1.60;0.93;;;18.90;86.90;;;;;;6184902;23;20008;-81
2023/08/09 11:25:20;;;;;;;1.23;0.85;;;18.80;86.90;;;;;;6207832;23;20035;-83
2023/08/09 11:27:49;;;;;;;1.23;0.95;;;18.80;86.90;;;;;;6184863;23;20053;-81
2023/08/09 11:30:15;;;;;;;1.50;0.90;;;18.80;86.90;;;;;;6183134;23;20439;-81
2023/08/09 11:32:41;;;;;;;1.10;0.85;;;18.80;87.10;;;;;;6183122;23;20013;-81
2023/08/09 11:35:08;;;;;;;1.50;1.00;;;18.80;87.00;;;;;;6182816;23;20462;-81
2023/08/09 11:37:34;;;;;;;1.10;0.90;;;18.80;86.90;;;;;;6183088;23;20428;-81
2023/08/09 11:39:59;;;;;;;1.08;0.90;;;18.80;86.80;;;;;;6183063;23;20029;-81
2023/08/09 11:42:25;;;;;;;1.35;0.90;;;18.80;86.80;;;;;;6183017;23;20005;-82
2023/08/09 11:44:50;;;;;;;1.65;0.80;;;18.90;86.80;;;;;;6182956;23;20343;-80
2023/08/09 11:47:16;;;;;;;1.45;1.08;;;18.80;86.80;;;;;;6183230;23;20032;-81
2023/08/09 11:49:43;;;;;;;1.45;1.00;;;18.80;86.70;;;;;;6184658;23;20427;-81
2023/08/09 11:52:14;;;;;;;1.25;0.85;;;18.80;86.60;;;;;;6183187;23;20348;-81
2023/08/09 11:54:40;;;;;;;1.02;0.90;;;18.90;86.50;;;;;;6186292;23;19997;-81
2023/08/09 11:57:07;;;;;;;1.73;0.98;;;18.80;86.50;;;;;;6186100;23;20080;-83
2023/08/09 11:59:32;;;;;;;1.73;0.88;;;18.80;86.70;;;;;;6182972;23;20463;-81
2023/08/09 12:01:58;;;;;;;1.75;1.00;;;18.80;87.30;;;;;;6182862;23;20005;-81
2023/08/09 12:04:26;;;;;;;1.10;1.00;;;18.80;86.90;;;;;;6182615;23;20432;-82
2023/08/09 12:07:00;;;;;;;0.93;0.80;;;18.80;87.00;;;;;;6184483;23;20005;-82
2023/08/09 12:09:38;;;;;;;2.08;1.10;;;18.70;86.90;;;;;;6183040;23;20005;-81
2023/08/09 12:12:06;;;;;;;1.60;0.88;;;18.70;87.10;;;;;;6182995;23;20083;-81
2023/08/09 12:14:33;;;;;;;1.23;0.85;;;18.70;87.30;;;;;;6182414;23;20015;-81
2023/08/09 12:16:59;;;;;;;0.98;0.80;;;18.70;87.30;;;;;;6182876;23;20005;-81
2023/08/09 12:19:26;;;;;;;1.42;0.82;;;18.60;87.30;;;;;;6184558;23;20072;-81
2023/08/09 12:21:53;;;;;;;1.42;0.90;;;18.70;87.20;;;;;;6182866;23;20028;-81
2023/08/09 12:24:18;;;;;;;1.17;0.88;;;18.70;87.30;;;;;;6183925;23;20005;-81
2023/08/09 12:26:44;;;;;;;1.30;0.90;;;18.70;87.30;;;;;;6182982;23;20016;-83
2023/08/09 12:29:10;;;;;;;1.88;0.90;;;18.60;87.20;;;;;;6182765;23;20467;-82
2023/08/09 12:31:36;;;;;;;1.38;0.70;;;18.80;87.40;;;;;;6182836;23;20063;-81
2023/08/09 12:34:02;;;;;;;1.20;0.80;;;18.70;87.40;;;;;;6182443;23;20005;-81
2023/08/09 12:36:29;;;;;;;1.80;0.98;;;18.70;87.30;;;;;;6185071;23;20009;-82
2023/08/09 12:38:55;;;;;;;2.85;1.00;;;18.60;87.30;;;;;;6184793;23;20001;-81
2023/08/09 12:41:21;;;;;;;1.30;0.90;;;18.60;87.20;;;;;;6186241;23;20074;-81
2023/08/09 12:43:47;;;;;;;1.35;0.85;;;18.70;87.90;;;;;;6184567;23;20001;-82